createdAt,value
2024-05-09T00:00:48.327Z,9.23
2024-05-09T00:01:48.169Z,9.10
2024-05-09T00:02:48.194Z,9.03
2024-05-09T00:03:48.242Z,9.14
2024-05-09T00:04:48.215Z,9.06
2024-05-09T00:05:48.157Z,9.14
2024-05-09T00:06:48.091Z,9.03
2024-05-09T00:07:48.105Z,9.06
2024-05-09T00:08:48.087Z,9.06
2024-05-09T00:09:48.058Z,9.00
2024-05-09T00:10:48.218Z,8.91
2024-05-09T00:11:48.219Z,8.89
2024-05-09T00:12:48.038Z,8.87
2024-05-09T00:13:48.083Z,8.85
2024-05-09T00:14:48.023Z,8.82
2024-05-09T00:15:48.011Z,8.84
2024-05-09T00:16:48.017Z,8.85
2024-05-09T00:17:48.178Z,8.79
2024-05-09T00:18:48.046Z,8.81
2024-05-09T00:19:47.992Z,8.78
2024-05-09T00:20:48.027Z,8.78
2024-05-09T00:21:47.959Z,8.70
2024-05-09T00:22:47.974Z,8.63
2024-05-09T00:23:47.940Z,8.69
2024-05-09T00:24:47.935Z,8.71
2024-05-09T00:25:47.987Z,8.67
2024-05-09T00:26:47.943Z,8.60
2024-05-09T00:27:47.903Z,8.52
2024-05-09T00:28:47.925Z,8.51
2024-05-09T00:29:47.889Z,8.61
2024-05-09T00:30:47.883Z,8.49
2024-05-09T00:31:47.959Z,8.61
2024-05-09T00:32:48.004Z,8.64
2024-05-09T00:33:47.947Z,8.53
2024-05-09T00:34:47.871Z,8.52
2024-05-09T00:35:47.830Z,8.51
2024-05-09T00:36:47.825Z,8.49
2024-05-09T00:37:47.840Z,8.48
2024-05-09T00:38:47.808Z,8.45
2024-05-09T00:39:47.798Z,8.48
2024-05-09T00:40:47.867Z,8.46
2024-05-09T00:41:47.826Z,8.48
2024-05-09T00:42:47.766Z,8.38
2024-05-09T00:43:47.772Z,8.42
2024-05-09T00:44:47.765Z,8.41
2024-05-09T00:45:47.747Z,8.41
2024-05-09T00:46:47.800Z,8.37
2024-05-09T00:47:47.977Z,8.20
2024-05-09T00:48:47.849Z,8.23
2024-05-09T00:49:47.806Z,8.18
2024-05-09T00:50:47.763Z,8.23
2024-05-09T00:51:47.703Z,8.18
2024-05-09T00:52:47.706Z,8.18
2024-05-09T00:53:47.746Z,8.19
2024-05-09T00:54:47.662Z,8.19
2024-05-09T00:55:47.846Z,8.12
2024-05-09T00:56:47.643Z,8.15
2024-05-09T00:57:47.635Z,8.15
2024-05-09T00:58:47.636Z,8.19
2024-05-09T00:59:47.616Z,8.19
2024-05-09T01:00:47.639Z,8.12
2024-05-09T01:01:47.721Z,8.16
2024-05-09T01:02:47.675Z,8.10
2024-05-09T01:03:50.442Z,8.09
2024-05-09T01:04:47.823Z,8.13
2024-05-09T01:05:47.621Z,8.09
2024-05-09T01:06:47.555Z,8.13
2024-05-09T01:07:47.561Z,8.09
2024-05-09T01:08:47.538Z,8.10
2024-05-09T01:09:47.527Z,8.03
2024-05-09T01:10:48.660Z,8.06
2024-05-09T01:11:47.637Z,7.98
2024-05-09T01:12:47.498Z,8.05
2024-05-09T01:13:47.508Z,7.94
2024-05-09T01:14:47.482Z,8.01
2024-05-09T01:15:47.473Z,7.95
2024-05-09T01:16:47.496Z,8.00
2024-05-09T01:17:47.846Z,7.94
2024-05-09T01:18:47.587Z,7.98
2024-05-09T01:19:47.493Z,8.01
2024-05-09T01:20:47.509Z,7.97
2024-05-09T01:21:47.435Z,7.88
2024-05-09T01:22:47.511Z,7.85
2024-05-09T01:23:47.404Z,7.80
2024-05-09T01:24:47.397Z,7.93
2024-05-09T01:25:47.507Z,7.91
2024-05-09T01:26:47.399Z,7.82
2024-05-09T01:27:47.384Z,7.83
2024-05-09T01:28:47.382Z,7.88
2024-05-09T01:29:47.354Z,7.79
2024-05-09T01:30:47.366Z,7.80
2024-05-09T01:31:47.414Z,7.75
2024-05-09T01:32:47.393Z,7.76
2024-05-09T01:33:47.543Z,7.75
2024-05-09T01:34:47.327Z,7.72
2024-05-09T01:35:47.286Z,7.76
2024-05-09T01:36:47.275Z,7.76
2024-05-09T01:37:47.327Z,7.75
2024-05-09T01:38:47.270Z,7.75
2024-05-09T01:39:47.250Z,7.72
2024-05-09T01:40:47.336Z,7.75
2024-05-09T01:41:47.231Z,7.75
2024-05-09T01:42:47.235Z,7.53
2024-05-09T01:43:47.236Z,7.66
2024-05-09T01:44:47.198Z,7.56
2024-05-09T01:45:47.199Z,7.63
2024-05-09T01:46:47.226Z,7.56
2024-05-09T01:47:47.269Z,7.56
2024-05-09T01:48:47.254Z,7.48
2024-05-09T01:49:47.207Z,7.56
2024-05-09T01:50:47.202Z,7.47
2024-05-09T01:51:47.146Z,7.47
2024-05-09T01:52:47.174Z,7.38
2024-05-09T01:53:47.126Z,7.38
2024-05-09T01:54:47.113Z,7.43
2024-05-09T01:55:47.119Z,7.35
2024-05-09T01:56:47.089Z,7.31
2024-05-09T01:57:47.081Z,7.32
2024-05-09T01:58:47.121Z,7.29
2024-05-09T01:59:47.064Z,7.29
2024-05-09T02:00:47.099Z,7.28
2024-05-09T02:01:56.543Z,7.18
2024-05-09T02:02:47.286Z,7.14
2024-05-09T02:03:47.152Z,7.18
2024-05-09T02:04:47.083Z,7.20
2024-05-09T02:05:47.791Z,7.21
2024-05-09T02:06:47.008Z,7.17
2024-05-09T02:07:47.086Z,7.21
2024-05-09T02:08:47.024Z,7.13
2024-05-09T02:09:46.967Z,7.13
2024-05-09T02:10:47.712Z,7.18
2024-05-09T02:11:47.021Z,7.15
2024-05-09T02:12:46.940Z,7.03
2024-05-09T02:13:46.975Z,7.13
2024-05-09T02:14:46.923Z,7.13
2024-05-09T02:15:46.951Z,7.03
2024-05-09T02:16:46.922Z,7.02
2024-05-09T02:17:47.054Z,7.00
2024-05-09T02:18:47.061Z,6.99
2024-05-09T02:19:46.900Z,6.95
2024-05-09T02:20:46.903Z,7.02
2024-05-09T02:21:46.852Z,7.00
2024-05-09T02:22:46.884Z,6.89
2024-05-09T02:23:46.850Z,6.95
2024-05-09T02:24:46.829Z,6.85
2024-05-09T02:25:46.862Z,6.93
2024-05-09T02:26:46.804Z,6.78
2024-05-09T02:27:46.804Z,6.85
2024-05-09T02:28:46.864Z,6.89
2024-05-09T02:29:46.778Z,6.87
2024-05-09T02:30:46.766Z,6.84
2024-05-09T02:31:46.874Z,6.79
2024-05-09T02:32:46.944Z,6.77
2024-05-09T02:33:47.001Z,6.84
2024-05-09T02:34:46.768Z,6.75
2024-05-09T02:35:46.734Z,6.82
2024-05-09T02:36:46.789Z,6.72
2024-05-09T02:37:46.752Z,6.75
2024-05-09T02:38:46.698Z,6.78
2024-05-09T02:39:46.680Z,6.70
2024-05-09T02:40:46.708Z,6.64
2024-05-09T02:41:46.660Z,6.62
2024-05-09T02:42:46.651Z,6.67
2024-05-09T02:43:46.661Z,6.63
2024-05-09T02:44:46.645Z,6.59
2024-05-09T02:45:46.623Z,6.42
2024-05-09T02:46:46.628Z,6.44
2024-05-09T02:47:46.717Z,6.57
2024-05-09T02:48:46.733Z,6.46
2024-05-09T02:49:46.659Z,6.44
2024-05-09T02:50:46.660Z,6.44
2024-05-09T02:51:46.564Z,6.35
2024-05-09T02:52:46.596Z,6.41
2024-05-09T02:53:46.583Z,6.41
2024-05-09T02:54:46.535Z,6.39
2024-05-09T02:55:46.567Z,6.38
2024-05-09T02:56:46.517Z,6.36
2024-05-09T02:57:46.507Z,6.45
2024-05-09T02:58:46.518Z,6.38
2024-05-09T02:59:46.489Z,6.39
2024-05-09T03:00:46.602Z,6.44
2024-05-09T03:01:46.578Z,6.36
2024-05-09T03:02:46.555Z,6.39
2024-05-09T03:03:46.585Z,6.27
2024-05-09T03:04:46.527Z,6.30
2024-05-09T03:05:46.921Z,6.31
2024-05-09T03:06:46.417Z,6.26
2024-05-09T03:07:46.457Z,6.33
2024-05-09T03:08:46.418Z,6.35
2024-05-09T03:09:46.387Z,6.27
2024-05-09T03:10:46.433Z,6.19
2024-05-09T03:11:46.476Z,6.27
2024-05-09T03:12:46.368Z,6.30
2024-05-09T03:13:46.371Z,6.24
2024-05-09T03:14:46.349Z,6.30
2024-05-09T03:15:46.327Z,6.28
2024-05-09T03:16:46.366Z,6.17
2024-05-09T03:17:46.549Z,6.22
2024-05-09T03:18:46.387Z,6.24
2024-05-09T03:19:46.361Z,6.16
2024-05-09T03:20:46.324Z,6.26
2024-05-09T03:21:46.266Z,6.17
2024-05-09T03:22:46.284Z,6.20
2024-05-09T03:23:46.340Z,6.09
2024-05-09T03:24:46.234Z,6.11
2024-05-09T03:25:46.256Z,6.12
2024-05-09T03:26:46.218Z,6.07
2024-05-09T03:27:46.205Z,6.20
2024-05-09T03:28:46.342Z,6.14
2024-05-09T03:29:46.184Z,6.05
2024-05-09T03:30:46.177Z,6.20
2024-05-09T03:31:46.244Z,6.11
2024-05-09T03:32:46.401Z,6.16
2024-05-09T03:33:46.319Z,6.20
2024-05-09T03:34:46.158Z,6.11
2024-05-09T03:35:46.227Z,6.17
2024-05-09T03:36:46.118Z,6.22
2024-05-09T03:37:46.129Z,6.19
2024-05-09T03:38:46.140Z,6.22
2024-05-09T03:39:46.085Z,6.19
2024-05-09T03:40:46.216Z,6.26
2024-05-09T03:41:46.077Z,6.19
2024-05-09T03:42:46.057Z,6.28
2024-05-09T03:43:46.057Z,6.33
2024-05-09T03:44:46.041Z,6.26
2024-05-09T03:45:46.019Z,6.31
2024-05-09T03:46:46.010Z,6.20
2024-05-09T03:47:46.305Z,6.27
2024-05-09T03:48:46.076Z,6.28
2024-05-09T03:49:46.017Z,6.38
2024-05-09T03:50:46.066Z,6.44
2024-05-09T03:51:45.962Z,6.31
2024-05-09T03:52:46.000Z,6.36
2024-05-09T03:53:45.970Z,6.48
2024-05-09T03:54:45.942Z,6.45
2024-05-09T03:55:45.994Z,6.38
2024-05-09T03:56:46.041Z,6.54
2024-05-09T03:57:45.897Z,6.46
2024-05-09T03:58:46.014Z,6.57
2024-05-09T03:59:45.881Z,6.63
2024-05-09T04:00:45.943Z,6.56
2024-05-09T04:01:46.053Z,6.66
2024-05-09T04:02:45.877Z,6.63
2024-05-09T04:03:46.020Z,6.63
2024-05-09T04:04:45.896Z,6.74
2024-05-09T04:05:46.120Z,6.81
2024-05-09T04:06:45.819Z,6.81
2024-05-09T04:07:45.847Z,6.81
2024-05-09T04:08:45.812Z,6.88
2024-05-09T04:09:45.777Z,6.93
2024-05-09T04:10:45.980Z,6.89
2024-05-09T04:11:45.842Z,7.03
2024-05-09T04:12:45.749Z,7.02
2024-05-09T04:13:45.832Z,6.97
2024-05-09T04:14:45.729Z,7.14
2024-05-09T04:15:45.721Z,7.15
2024-05-09T04:16:45.731Z,7.20
2024-05-09T04:17:45.813Z,7.18
2024-05-09T04:18:45.785Z,7.31
2024-05-09T04:19:45.707Z,7.31
2024-05-09T04:20:45.701Z,7.48
2024-05-09T04:21:45.659Z,7.45
2024-05-09T04:22:45.696Z,7.61
2024-05-09T04:23:45.664Z,7.57
2024-05-09T04:24:45.628Z,7.67
2024-05-09T04:25:46.005Z,7.69
2024-05-09T04:26:45.604Z,7.70
2024-05-09T04:27:45.602Z,7.79
2024-05-09T04:28:45.642Z,7.94
2024-05-09T04:29:45.581Z,7.91
2024-05-09T04:30:45.569Z,7.98
2024-05-09T04:31:45.588Z,7.83
2024-05-09T04:32:45.661Z,7.94
2024-05-09T04:33:45.641Z,8.18
2024-05-09T04:34:45.570Z,8.76
2024-05-09T04:35:45.755Z,9.18
2024-05-09T04:36:45.518Z,9.66
2024-05-09T04:37:45.561Z,10.05
2024-05-09T04:38:45.521Z,10.51
2024-05-09T04:39:45.483Z,11.08
2024-05-09T04:40:45.512Z,11.60
2024-05-09T04:41:45.466Z,11.81
2024-05-09T04:42:45.459Z,12.32
2024-05-09T04:43:45.462Z,12.68
2024-05-09T04:44:45.442Z,12.97
2024-05-09T04:45:45.425Z,13.25
2024-05-09T04:46:45.450Z,13.65
2024-05-09T04:47:45.537Z,14.07
2024-05-09T04:48:45.582Z,14.29
2024-05-09T04:49:45.403Z,14.04
2024-05-09T04:50:45.444Z,14.14
2024-05-09T04:51:45.385Z,14.08
2024-05-09T04:52:45.387Z,13.52
2024-05-09T04:53:45.509Z,13.68
2024-05-09T04:54:45.351Z,13.89
2024-05-09T04:55:45.483Z,13.53
2024-05-09T04:56:45.375Z,13.11
2024-05-09T04:57:45.328Z,13.28
2024-05-09T04:58:45.357Z,13.20
2024-05-09T04:59:45.310Z,13.65
2024-05-09T05:00:45.371Z,14.12
2024-05-09T05:01:45.417Z,14.73
2024-05-09T05:02:45.347Z,15.31
2024-05-09T05:03:45.431Z,15.07
2024-05-09T05:04:45.378Z,14.82
2024-05-09T05:05:46.118Z,14.77
2024-05-09T05:06:45.251Z,14.78
2024-05-09T05:07:45.289Z,14.79
2024-05-09T05:08:45.286Z,14.54
2024-05-09T05:09:45.244Z,14.29
2024-05-09T05:10:45.458Z,14.47
2024-05-09T05:11:45.288Z,14.18
2024-05-09T05:12:45.208Z,14.53
2024-05-09T05:13:45.236Z,14.73
2024-05-09T05:14:45.195Z,14.40
2024-05-09T05:15:45.183Z,13.62
2024-05-09T05:16:45.224Z,13.50
2024-05-09T05:17:45.352Z,13.27
2024-05-09T05:18:45.223Z,13.44
2024-05-09T05:19:45.260Z,14.00
2024-05-09T05:20:45.249Z,14.50
2024-05-09T05:21:45.142Z,14.44
2024-05-09T05:22:45.179Z,14.79
2024-05-09T05:23:45.184Z,15.44
2024-05-09T05:24:45.135Z,16.15
2024-05-09T05:25:45.175Z,16.57
2024-05-09T05:26:45.180Z,17.05
2024-05-09T05:27:45.099Z,17.45
2024-05-09T05:28:45.157Z,17.97
2024-05-09T05:29:45.125Z,18.11
2024-05-09T05:30:45.093Z,18.11
2024-05-09T05:31:45.177Z,18.28
2024-05-09T05:32:45.162Z,18.62
2024-05-09T05:33:45.147Z,18.80
2024-05-09T05:34:45.091Z,18.96
2024-05-09T05:35:45.055Z,18.70
2024-05-09T05:36:45.041Z,18.44
2024-05-09T05:37:45.082Z,18.33
2024-05-09T05:38:45.152Z,18.29
2024-05-09T05:39:45.021Z,18.41
2024-05-09T05:40:45.095Z,18.74
2024-05-09T05:41:45.011Z,18.86
2024-05-09T05:42:45.007Z,18.49
2024-05-09T05:43:45.040Z,18.60
2024-05-09T05:44:44.992Z,18.99
2024-05-09T05:45:44.999Z,19.12
2024-05-09T05:46:45.018Z,19.04
2024-05-09T05:47:45.189Z,18.96
2024-05-09T05:48:45.087Z,18.93
2024-05-09T05:49:45.028Z,18.66
2024-05-09T05:50:45.003Z,18.65
2024-05-09T05:51:44.953Z,18.25
2024-05-09T05:52:44.979Z,18.41
2024-05-09T05:53:45.011Z,18.56
2024-05-09T05:54:44.944Z,18.68
2024-05-09T05:55:44.982Z,18.96
2024-05-09T05:56:44.986Z,18.84
2024-05-09T05:57:44.938Z,18.84
2024-05-09T05:58:44.944Z,18.35
2024-05-09T05:59:44.945Z,17.42
2024-05-09T06:00:45.063Z,17.71
2024-05-09T06:01:44.944Z,18.20
2024-05-09T06:02:45.107Z,18.50
2024-05-09T06:03:45.025Z,18.63
2024-05-09T06:04:45.034Z,18.92
2024-05-09T06:05:44.919Z,19.45
2024-05-09T06:06:44.888Z,19.56
2024-05-09T06:07:44.896Z,19.85
2024-05-09T06:08:45.069Z,20.04
2024-05-09T06:09:47.499Z,20.37
2024-05-09T06:10:45.006Z,20.81
2024-05-09T06:11:44.992Z,21.35
2024-05-09T06:12:44.847Z,21.80
2024-05-09T06:13:44.931Z,21.80
2024-05-09T06:14:44.842Z,21.72
2024-05-09T06:15:44.840Z,21.69
2024-05-09T06:16:44.906Z,21.70
2024-05-09T06:17:45.127Z,21.99
2024-05-09T06:18:44.899Z,22.13
2024-05-09T06:19:45.015Z,22.28
2024-05-09T06:20:44.906Z,22.32
2024-05-09T06:21:44.818Z,22.38
2024-05-09T06:22:44.859Z,22.51
2024-05-09T06:23:44.828Z,22.66
2024-05-09T06:24:44.800Z,22.29
2024-05-09T06:25:44.950Z,21.98
2024-05-09T06:26:44.860Z,21.66
2024-05-09T06:27:44.804Z,21.52
2024-05-09T06:28:44.851Z,21.61
2024-05-09T06:29:44.807Z,22.00
2024-05-09T06:30:44.789Z,22.30
2024-05-09T06:31:44.872Z,22.60
2024-05-09T06:32:44.873Z,23.03
2024-05-09T06:33:45.007Z,22.90
2024-05-09T06:34:44.881Z,23.31
2024-05-09T06:35:45.093Z,23.28
2024-05-09T06:36:44.783Z,23.48
2024-05-09T06:37:44.801Z,23.54
2024-05-09T06:38:45.045Z,23.13
2024-05-09T06:39:44.773Z,23.20
2024-05-09T06:40:45.044Z,23.46
2024-05-09T06:41:44.783Z,23.18
2024-05-09T06:42:44.756Z,22.94
2024-05-09T06:43:44.814Z,22.72
2024-05-09T06:44:44.764Z,22.62
2024-05-09T06:45:44.759Z,22.69
2024-05-09T06:46:44.852Z,23.08
2024-05-09T06:47:44.858Z,23.28
2024-05-09T06:48:45.050Z,22.62
2024-05-09T06:49:44.852Z,22.14
2024-05-09T06:50:44.791Z,22.47
2024-05-09T06:51:44.737Z,22.69
2024-05-09T06:52:44.790Z,22.87
2024-05-09T06:53:44.761Z,23.27
2024-05-09T06:54:44.732Z,23.63
2024-05-09T06:55:44.860Z,23.92
2024-05-09T06:56:44.765Z,24.39
2024-05-09T06:57:44.736Z,24.43
2024-05-09T06:58:44.820Z,24.50
2024-05-09T06:59:44.759Z,24.80
2024-05-09T07:00:44.784Z,25.06
2024-05-09T07:01:44.853Z,25.47
2024-05-09T07:02:44.829Z,25.91
2024-05-09T07:03:44.835Z,25.72
2024-05-09T07:04:44.864Z,25.48
2024-05-09T07:05:45.071Z,25.04
2024-05-09T07:06:44.721Z,24.30
2024-05-09T07:07:44.783Z,23.15
2024-05-09T07:08:44.726Z,22.83
2024-05-09T07:09:44.857Z,21.70
2024-05-09T07:10:44.941Z,21.25
2024-05-09T07:11:44.781Z,21.51
2024-05-09T07:12:44.711Z,21.93
2024-05-09T07:13:44.788Z,22.48
2024-05-09T07:14:44.764Z,22.94
2024-05-09T07:15:44.724Z,23.09
2024-05-09T07:16:44.703Z,23.02
2024-05-09T07:17:44.803Z,23.17
2024-05-09T07:18:44.925Z,23.48
2024-05-09T07:19:44.759Z,23.34
2024-05-09T07:20:44.769Z,23.61
2024-05-09T07:21:44.721Z,23.77
2024-05-09T07:22:44.704Z,23.63
2024-05-09T07:23:47.246Z,23.15
2024-05-09T07:24:44.721Z,22.43
2024-05-09T07:25:44.716Z,22.55
2024-05-09T07:26:44.811Z,22.88
2024-05-09T07:27:44.730Z,23.55
2024-05-09T07:28:44.706Z,23.34
2024-05-09T07:29:44.730Z,23.40
2024-05-09T07:30:44.834Z,23.73
2024-05-09T07:31:44.701Z,23.88
2024-05-09T07:32:44.997Z,23.98
2024-05-09T07:33:44.788Z,24.33
2024-05-09T07:34:44.696Z,24.48
2024-05-09T07:35:44.720Z,24.76
2024-05-09T07:36:44.701Z,24.73
2024-05-09T07:37:44.710Z,22.84
2024-05-09T07:38:44.741Z,22.81
2024-05-09T07:39:44.701Z,23.08
2024-05-09T07:40:44.811Z,21.20
2024-05-09T07:41:44.760Z,20.13
2024-05-09T07:42:44.706Z,20.26
2024-05-09T07:43:44.724Z,20.28
2024-05-09T07:44:44.712Z,20.82
2024-05-09T07:45:51.693Z,21.52
2024-05-09T07:47:48.440Z,21.21
2024-05-09T07:49:12.695Z,21.55
2024-05-09T07:51:32.327Z,21.05
2024-05-09T07:53:14.467Z,20.24
2024-05-09T07:53:34.418Z,20.75
2024-05-09T07:53:48.170Z,21.11
2024-05-09T07:54:44.905Z,20.70
2024-05-09T07:55:44.816Z,21.03
2024-05-09T07:56:44.840Z,21.70
2024-05-09T07:57:44.747Z,22.41
2024-05-09T07:58:44.720Z,23.09
2024-05-09T07:59:44.738Z,23.17
2024-05-09T08:00:44.775Z,23.40
2024-05-09T08:01:44.817Z,23.81
2024-05-09T08:02:44.751Z,24.43
2024-05-09T08:03:44.953Z,24.57
2024-05-09T08:04:44.803Z,23.56
2024-05-09T08:05:44.801Z,23.41
2024-05-09T08:06:44.792Z,21.98
2024-05-09T08:07:44.719Z,21.24
2024-05-09T08:08:44.725Z,21.17
2024-05-09T08:09:44.761Z,21.29
2024-05-09T08:10:44.851Z,22.08
2024-05-09T08:11:44.834Z,22.51
2024-05-09T08:12:44.785Z,22.23
2024-05-09T08:13:44.760Z,21.70
2024-05-09T08:14:44.743Z,21.92
2024-05-09T08:15:44.867Z,22.29
2024-05-09T08:16:44.743Z,22.72
2024-05-09T08:17:44.881Z,23.10
2024-05-09T08:18:44.868Z,23.06
2024-05-09T08:19:44.775Z,23.58
2024-05-09T08:20:44.730Z,24.36
2024-05-09T08:21:44.756Z,24.01
2024-05-09T08:22:44.744Z,23.58
2024-05-09T08:23:44.731Z,22.08
2024-05-09T08:24:44.774Z,20.32
2024-05-09T08:25:44.738Z,20.09
2024-05-09T08:26:44.730Z,19.92
2024-05-09T08:27:44.749Z,19.26
2024-05-09T08:28:44.728Z,18.49
2024-05-09T08:29:44.775Z,17.85
2024-05-09T08:30:44.965Z,17.42
2024-05-09T08:31:44.840Z,17.02
2024-05-09T08:32:44.794Z,16.84
2024-05-09T08:33:44.838Z,16.71
2024-05-09T08:34:44.800Z,16.97
2024-05-09T08:35:44.715Z,17.14
2024-05-09T08:36:44.733Z,17.27
2024-05-09T08:37:44.761Z,17.42
2024-05-09T08:38:44.709Z,17.27
2024-05-09T08:39:44.746Z,17.29
2024-05-09T08:40:44.864Z,17.06
2024-05-09T08:41:44.709Z,16.99
2024-05-09T08:42:44.717Z,17.08
2024-05-09T08:43:44.694Z,17.14
2024-05-09T08:44:44.706Z,17.41
2024-05-09T08:45:45.572Z,17.49
2024-05-09T08:46:44.687Z,17.44
2024-05-09T08:47:44.745Z,17.23
2024-05-09T08:48:44.886Z,17.02
2024-05-09T08:49:44.710Z,17.02
2024-05-09T08:50:45.658Z,16.94
2024-05-09T08:51:44.700Z,16.94
2024-05-09T08:52:44.663Z,16.99
2024-05-09T08:53:44.663Z,17.39
2024-05-09T08:54:44.710Z,17.97
2024-05-09T08:55:44.844Z,18.35
2024-05-09T08:56:44.707Z,18.66
2024-05-09T08:57:44.720Z,18.98
2024-05-09T08:58:44.646Z,19.67
2024-05-09T08:59:44.663Z,19.76
2024-05-09T09:00:45.374Z,19.55
2024-05-09T09:01:44.774Z,19.51
2024-05-09T09:02:44.854Z,20.00
2024-05-09T09:03:44.811Z,20.58
2024-05-09T09:04:44.726Z,20.40
2024-05-09T09:05:44.725Z,20.22
2024-05-09T09:06:44.685Z,20.16
2024-05-09T09:07:44.624Z,20.06
2024-05-09T09:08:44.616Z,19.84
2024-05-09T09:09:44.691Z,19.55
2024-05-09T09:10:44.853Z,19.31
2024-05-09T09:11:44.631Z,19.12
2024-05-09T09:12:44.632Z,18.99
2024-05-09T09:13:44.609Z,18.89
2024-05-09T09:14:44.594Z,19.02
2024-05-09T09:15:44.611Z,18.86
2024-05-09T09:16:44.597Z,18.95
2024-05-09T09:17:44.636Z,19.00
2024-05-09T09:18:44.878Z,18.86
2024-05-09T09:19:44.643Z,18.84
2024-05-09T09:20:44.745Z,18.80
2024-05-09T09:21:44.591Z,18.66
2024-05-09T09:22:44.569Z,18.55
2024-05-09T09:23:44.651Z,18.58
2024-05-09T09:24:44.610Z,18.52
2024-05-09T09:25:44.703Z,18.55
2024-05-09T09:26:44.572Z,18.50
2024-05-09T09:27:44.614Z,18.47
2024-05-09T09:28:44.559Z,18.43
2024-05-09T09:29:44.578Z,18.37
2024-05-09T09:30:44.712Z,18.38
2024-05-09T09:31:44.541Z,18.34
2024-05-09T09:32:44.575Z,18.29
2024-05-09T09:33:44.699Z,18.25
2024-05-09T09:34:44.554Z,18.18
2024-05-09T09:35:44.521Z,18.08
2024-05-09T09:36:44.561Z,18.10
2024-05-09T09:37:44.512Z,17.83
2024-05-09T09:38:44.548Z,17.83
2024-05-09T09:39:48.818Z,17.89
2024-05-09T09:40:48.597Z,17.56
2024-05-09T09:41:44.631Z,17.56
2024-05-09T09:42:44.528Z,17.72
2024-05-09T09:43:44.523Z,17.59
2024-05-09T09:44:47.808Z,17.65
2024-05-09T09:45:44.504Z,17.48
2024-05-09T09:46:44.486Z,17.45
2024-05-09T09:47:44.732Z,17.49
2024-05-09T09:48:44.604Z,17.67
2024-05-09T09:49:44.571Z,17.74
2024-05-09T09:50:44.473Z,17.64
2024-05-09T09:51:44.471Z,17.57
2024-05-09T09:52:44.452Z,17.57
2024-05-09T09:53:44.450Z,17.72
2024-05-09T09:54:44.494Z,17.82
2024-05-09T09:55:44.454Z,17.70
2024-05-09T09:56:44.434Z,17.79
2024-05-09T09:57:44.456Z,17.71
2024-05-09T09:58:44.427Z,17.76
2024-05-09T09:59:44.424Z,17.90
2024-05-09T10:00:44.863Z,17.72
2024-05-09T10:01:44.474Z,17.78
2024-05-09T10:02:44.445Z,17.82
2024-05-09T10:03:44.596Z,17.89
2024-05-09T10:04:44.607Z,17.95
2024-05-09T10:05:47.014Z,18.00
2024-05-09T10:06:44.406Z,17.95
2024-05-09T10:07:44.391Z,17.92
2024-05-09T10:08:44.383Z,17.74
2024-05-09T10:09:44.460Z,17.64
2024-05-09T10:10:44.664Z,17.82
2024-05-09T10:11:49.188Z,17.70
2024-05-09T10:12:44.383Z,17.72
2024-05-09T10:13:44.364Z,17.83
2024-05-09T10:14:44.365Z,17.80
2024-05-09T10:15:44.371Z,17.89
2024-05-09T10:16:44.354Z,17.92
2024-05-09T10:17:44.451Z,17.97
2024-05-09T10:18:44.504Z,18.00
2024-05-09T10:19:44.379Z,18.11
2024-05-09T10:20:44.532Z,18.05
2024-05-09T10:21:44.379Z,18.11
2024-05-09T10:22:44.322Z,17.92
2024-05-09T10:23:44.322Z,17.95
2024-05-09T10:24:44.335Z,17.97
2024-05-09T10:25:44.309Z,17.92
2024-05-09T10:26:44.308Z,17.65
2024-05-09T10:27:44.364Z,17.45
2024-05-09T10:28:44.321Z,17.42
2024-05-09T10:29:44.291Z,17.57
2024-05-09T10:30:45.673Z,17.60
2024-05-09T10:31:44.389Z,17.63
2024-05-09T10:32:44.350Z,17.54
2024-05-09T10:33:44.495Z,17.64
2024-05-09T10:34:44.312Z,17.86
2024-05-09T10:35:44.268Z,18.03
2024-05-09T10:36:44.303Z,17.95
2024-05-09T10:37:44.256Z,18.00
2024-05-09T10:38:44.252Z,18.07
2024-05-09T10:39:44.296Z,18.08
2024-05-09T10:40:44.325Z,18.22
2024-05-09T10:41:44.255Z,18.29
2024-05-09T10:42:44.275Z,18.35
2024-05-09T10:43:44.256Z,18.23
2024-05-09T10:44:44.223Z,18.18
2024-05-09T10:45:44.257Z,18.20
2024-05-09T10:46:44.242Z,18.37
2024-05-09T10:47:44.288Z,18.52
2024-05-09T10:48:44.684Z,18.58
2024-05-09T10:49:44.384Z,18.75
2024-05-09T10:50:44.195Z,18.53
2024-05-09T10:51:44.275Z,18.53
2024-05-09T10:52:44.187Z,18.43
2024-05-09T10:53:44.201Z,18.37
2024-05-09T10:54:44.238Z,18.44
2024-05-09T10:55:44.172Z,18.52
2024-05-09T10:56:44.221Z,18.55
2024-05-09T10:57:44.248Z,18.59
2024-05-09T10:58:44.251Z,18.41
2024-05-09T10:59:44.184Z,18.49
2024-05-09T11:00:44.330Z,18.53
2024-05-09T11:01:44.682Z,18.74
2024-05-09T11:02:44.304Z,18.74
2024-05-09T11:03:44.357Z,18.86
2024-05-09T11:04:44.201Z,19.00
2024-05-09T11:05:44.241Z,18.98
2024-05-09T11:06:44.176Z,18.80
2024-05-09T11:07:44.132Z,18.84
2024-05-09T11:08:44.135Z,18.74
2024-05-09T11:09:44.132Z,18.59
2024-05-09T11:10:44.211Z,18.56
2024-05-09T11:11:44.183Z,18.65
2024-05-09T11:12:44.123Z,18.74
2024-05-09T11:13:44.104Z,18.65
2024-05-09T11:14:44.100Z,18.68
2024-05-09T11:15:44.156Z,18.81
2024-05-09T11:16:44.091Z,18.84
2024-05-09T11:17:44.191Z,18.93
2024-05-09T11:18:44.283Z,19.04
2024-05-09T11:19:44.134Z,19.14
2024-05-09T11:20:44.190Z,19.11
2024-05-09T11:21:44.202Z,19.11
2024-05-09T11:22:44.081Z,19.15
2024-05-09T11:23:44.065Z,19.19
2024-05-09T11:24:44.112Z,19.30
2024-05-09T11:25:44.055Z,19.33
2024-05-09T11:26:44.056Z,19.31
2024-05-09T11:27:44.100Z,19.34
2024-05-09T11:28:44.043Z,19.36
2024-05-09T11:29:44.039Z,19.19
2024-05-09T11:30:44.090Z,19.08
2024-05-09T11:31:44.127Z,18.93
2024-05-09T11:32:44.091Z,18.93
2024-05-09T11:33:44.210Z,18.99
2024-05-09T11:34:44.067Z,18.93
2024-05-09T11:35:44.016Z,18.99
2024-05-09T11:36:44.077Z,18.96
2024-05-09T11:37:44.012Z,18.96
2024-05-09T11:38:44.014Z,18.93
2024-05-09T11:39:44.061Z,19.02
2024-05-09T11:40:44.143Z,19.11
2024-05-09T11:41:43.994Z,19.21
2024-05-09T11:42:44.010Z,19.41
2024-05-09T11:43:43.987Z,19.54
2024-05-09T11:44:43.980Z,19.73
2024-05-09T11:45:44.002Z,19.67
2024-05-09T11:46:43.975Z,19.73
2024-05-09T11:47:44.032Z,19.81
2024-05-09T11:48:44.316Z,20.06
2024-05-09T11:49:43.973Z,20.14
2024-05-09T11:50:43.986Z,20.16
2024-05-09T11:51:44.003Z,20.24
2024-05-09T11:52:43.949Z,20.26
2024-05-09T11:53:43.944Z,20.21
2024-05-09T11:54:44.006Z,20.16
2024-05-09T11:55:43.942Z,20.11
2024-05-09T11:56:43.933Z,20.14
2024-05-09T11:57:43.976Z,20.18
2024-05-09T11:58:43.926Z,20.25
2024-05-09T11:59:43.923Z,20.24
2024-05-09T12:00:44.103Z,20.32
2024-05-09T12:01:44.015Z,20.36
2024-05-09T12:02:43.912Z,20.34
2024-05-09T12:03:44.121Z,20.40
2024-05-09T12:04:43.998Z,20.50
2024-05-09T12:05:44.025Z,20.47
2024-05-09T12:06:43.942Z,20.52
2024-05-09T12:07:43.896Z,20.52
2024-05-09T12:08:43.896Z,20.52
2024-05-09T12:09:43.932Z,20.48
2024-05-09T12:10:43.978Z,20.51
2024-05-09T12:11:43.936Z,20.51
2024-05-09T12:12:43.887Z,20.40
2024-05-09T12:13:43.942Z,20.25
2024-05-09T12:14:43.874Z,20.29
2024-05-09T12:15:43.916Z,20.11
2024-05-09T12:16:44.008Z,20.07
2024-05-09T12:17:44.859Z,19.88
2024-05-09T12:18:43.973Z,19.70
2024-05-09T12:19:43.896Z,19.76
2024-05-09T12:20:43.848Z,19.82
2024-05-09T12:21:43.879Z,19.77
2024-05-09T12:22:43.869Z,19.82
2024-05-09T12:23:43.859Z,19.96
2024-05-09T12:24:43.955Z,20.13
2024-05-09T12:25:43.840Z,20.22
2024-05-09T12:26:43.847Z,20.31
2024-05-09T12:27:43.860Z,20.32
2024-05-09T12:28:43.855Z,20.47
2024-05-09T12:29:43.827Z,20.48
2024-05-09T12:30:43.852Z,20.51
2024-05-09T12:31:43.817Z,20.72
2024-05-09T12:32:43.881Z,20.72
2024-05-09T12:33:43.938Z,20.66
2024-05-09T12:34:43.892Z,20.65
2024-05-09T12:35:46.500Z,20.74
2024-05-09T12:36:43.818Z,20.72
2024-05-09T12:37:43.794Z,20.80
2024-05-09T12:38:43.800Z,20.81
2024-05-09T12:39:43.836Z,20.88
2024-05-09T12:40:44.008Z,20.77
2024-05-09T12:41:43.785Z,20.82
2024-05-09T12:42:43.828Z,20.78
2024-05-09T12:43:43.775Z,20.99
2024-05-09T12:44:43.778Z,20.93
2024-05-09T12:45:43.869Z,21.03
2024-05-09T12:46:43.769Z,21.05
2024-05-09T12:47:43.877Z,21.09
2024-05-09T12:48:43.892Z,21.03
2024-05-09T12:49:43.903Z,21.06
2024-05-09T12:50:43.951Z,21.06
2024-05-09T12:51:43.784Z,21.05
2024-05-09T12:52:43.753Z,21.09
2024-05-09T12:53:43.750Z,21.05
2024-05-09T12:54:43.789Z,21.09
2024-05-09T12:55:49.040Z,21.07
2024-05-09T12:56:43.740Z,21.06
2024-05-09T12:57:43.768Z,21.03
2024-05-09T12:58:43.738Z,20.95
2024-05-09T12:59:43.734Z,20.87
2024-05-09T13:00:43.878Z,20.74
2024-05-09T13:01:43.893Z,20.59
2024-05-09T13:02:43.774Z,20.47
2024-05-09T13:03:43.884Z,20.37